^^
Station Historical Data
Daily Summary for February 7, 2017 Units:  English    Metric   Both
« Previous Day
Next Day »
Daily Weekly Monthly Yearly Custom
  High: Low: Average:
Temperature: 37.3 °F 31.1 °F 34.4 °F
Dew Point: 36.5 °F 29.3 °F 33.1 °F
Humidity: 97% 90% 95%
Wind Speed: 2.0mph 0.0mph 0.3mph
Wind Gust: 8.0mph - -
Wind- - SE
Pressure: 30.04 in 29.64 in -
Precipitation: 0.32 in    
Historical Graphs
 
 
Tabular Data for February 7, 2017
Time Temperature Dew Point Pressure Wind Wind Speed Wind Gust Humidity Rainfall Rate (Hourly) Conditions
00:00 33.4 °F 30.8 °F 30.04 in Calm     90% 0.00 in CLR
00:10 32.8 °F 30.2 °F 30.03 in Calm     90% 0.00 in CLR
00:20 32.7 °F 30.4 °F 30.03 in Calm     91% 0.00 in CLR
00:30 32.9 °F 30.8 °F 30.03 in Calm     92% 0.00 in CLR
00:40 32.5 °F 30.2 °F 30.02 in Calm     91% 0.00 in CLR
00:50 32.6 °F 30.5 °F 30.02 in Calm   1.0 mph 92% 0.00 in CLR
01:00 32.7 °F 30.7 °F 30.01 in Calm     92% 0.00 in CLR
01:10 32.2 °F 29.9 °F 30.01 in Calm     91% 0.00 in CLR
01:20 31.9 °F 29.8 °F 30.01 in Calm     92% 0.00 in CLR
01:30 33.2 °F 31.6 °F 30.01 in Calm     94% 0.00 in CLR
01:40 32.9 °F 31.1 °F 30.00 in Calm   1.0 mph 93% 0.00 in CLR
01:50 32.5 °F 30.5 °F 30.00 in Calm     92% 0.00 in CLR
02:00 32.7 °F 30.9 °F 30.00 in Calm   1.0 mph 93% 0.00 in CLR
02:10 32.7 °F 30.6 °F 30.00 in Calm   1.0 mph 92% 0.00 in CLR
02:20 32.5 °F 30.4 °F 30.00 in Calm     92% 0.00 in CLR
02:30 32.2 °F 30.2 °F 29.99 in Calm     92% 0.00 in CLR
02:40 32.1 °F 30.3 °F 29.99 in Calm     93% 0.00 in CLR
02:50 31.9 °F 30.1 °F 29.99 in Calm     93% 0.00 in CLR
03:00 31.8 °F 30.0 °F 29.99 in Calm     93% 0.00 in CLR
03:10 31.5 °F 29.7 °F 29.99 in Calm     93% 0.00 in CLR
03:20 31.4 °F 29.7 °F 29.99 in Calm     93% 0.00 in CLR
03:30 31.1 °F 29.3 °F 29.98 in Calm     93% 0.00 in CLR
03:50 31.3 °F 29.8 °F 29.97 in Calm   1.0 mph 94% 0.00 in CLR
04:00 31.4 °F 29.6 °F 29.96 in Calm   1.0 mph 93% 0.00 in CLR
04:10 31.6 °F 29.9 °F 29.96 in Calm     93% 0.00 in SCT
04:20 31.7 °F 29.9 °F 29.96 in Calm   1.0 mph 93% 0.00 in SCT
04:30 31.9 °F 30.1 °F 29.96 in Calm     93% 0.00 in SCT
04:40 32.0 °F 30.2 °F 29.96 in Calm     93% 0.00 in SCT
04:50 32.1 °F 30.3 °F 29.96 in Calm     93% 0.00 in SCT
05:00 32.1 °F 30.3 °F 29.96 in Calm   1.0 mph 93% 0.00 in SCT
05:10 32.1 °F 30.3 °F 29.96 in Calm   1.0 mph 93% 0.00 in BKN
05:20 32.1 °F 30.0 °F 29.97 in Calm     92% 0.00 in BKN
05:30 31.9 °F 29.8 °F 29.97 in Calm   1.0 mph 92% 0.00 in BKN
05:40 32.0 °F 29.9 °F 29.97 in Calm     92% 0.00 in BKN
05:50 32.1 °F 30.0 °F 29.97 in Calm     92% 0.00 in BKN
06:00 32.0 °F 29.6 °F 29.97 in Calm     91% 0.00 in BKN
06:10 31.9 °F 29.6 °F 29.97 in Calm     91% 0.00 in -RA
06:20 32.0 °F 30.0 °F 29.96 in Calm     92% 0.01 in -RA
06:30 32.2 °F 30.1 °F 29.96 in Calm     92% 0.01 in -RA
06:40 32.2 °F 30.1 °F 29.95 in Calm   1.0 mph 92% 0.01 in -RA
06:50 32.3 °F 30.5 °F 29.95 in Calm   2.0 mph 93% 0.01 in -RA
07:00 32.2 °F 30.4 °F 29.95 in Calm   1.0 mph 93% 0.01 in -RA
07:10 32.8 °F 31.3 °F 29.94 in Calm   1.0 mph 94% 0.00 in -RA
07:20 33.2 °F 31.6 °F 29.94 in Calm   1.0 mph 94% 0.00 in -RA
07:30 33.6 °F 32.1 °F 29.95 in Calm   1.0 mph 94% 0.00 in -RA
07:40 33.3 °F 31.8 °F 29.96 in Calm   1.0 mph 94% 0.00 in -RA
07:50 32.7 °F 31.2 °F 29.96 in Calm   1.0 mph 94% 0.00 in -RA
08:00 32.7 °F 31.2 °F 29.96 in Calm     94% 0.00 in -RA
08:10 32.9 °F 31.7 °F 29.97 in Calm     95% 0.00 in OVC
08:20 33.3 °F 32.0 °F 29.97 in Calm   1.0 mph 95% 0.00 in OVC
08:30 33.6 °F 32.3 °F 29.96 in Calm   1.0 mph 95% 0.00 in OVC
08:40 33.7 °F 32.4 °F 29.96 in Calm   1.0 mph 95% 0.00 in OVC
08:50 33.8 °F 32.5 °F 29.96 in Calm   1.0 mph 95% 0.00 in OVC
09:00 34.2 °F 32.9 °F 29.97 in Calm   1.0 mph 95% 0.00 in OVC
09:10 34.1 °F 32.8 °F 29.98 in Calm   2.0 mph 95% 0.00 in OVC
09:20 34.1 °F 32.8 °F 29.98 in Calm   1.0 mph 95% 0.00 in OVC
09:30 34.2 °F 32.9 °F 29.97 in Calm   1.0 mph 95% 0.00 in OVC
09:40 34.4 °F 33.1 °F 29.98 in Calm     95% 0.00 in OVC
09:50 35.1 °F 34.0 °F 29.97 in Calm   1.0 mph 96% 0.01 in RA
10:00 35.6 °F 34.6 °F 29.97 in Calm   1.0 mph 96% 0.00 in OVC
10:10 35.6 °F 34.3 °F 29.97 in Calm   1.0 mph 95% 0.00 in -RA
10:20 35.8 °F 34.8 °F 29.96 in Calm   1.0 mph 96% 0.00 in -RA
10:30 36.3 °F 35.3 °F 29.97 in Calm   3.0 mph 96% 0.01 in -RA
10:40 36.5 °F 35.5 °F 29.95 in Calm   6.0 mph 96% 0.00 in -RA
10:50 36.5 °F 35.5 °F 29.97 in Calm   4.0 mph 96% 0.00 in -RA
11:00 36.5 °F 35.2 °F 29.98 in Calm   2.0 mph 95% 0.03 in -RA
11:10 36.4 °F 35.1 °F 29.97 in Calm   1.0 mph 95% 0.02 in -RA
11:20 36.3 °F 35.0 °F 29.97 in Calm   2.0 mph 95% 0.03 in -RA
11:30 36.4 °F 35.1 °F 29.95 in Calm   1.0 mph 95% 0.01 in -RA
11:40 36.1 °F 34.8 °F 29.93 in ENE 1.0 mph 2.0 mph 95% 0.03 in -RA
11:50 36.0 °F 34.7 °F 29.91 in Calm   7.0 mph 95% 0.02 in -RA
12:00 35.7 °F 34.5 °F 29.91 in NNE 1.0 mph 7.0 mph 95% 0.02 in -RA
12:10 35.6 °F 34.3 °F 29.92 in Calm   8.0 mph 95% 0.02 in -RA
12:20 35.6 °F 34.3 °F 29.89 in Calm   4.0 mph 95% 0.01 in -RA
12:30 35.6 °F 34.3 °F 29.89 in NE 1.0 mph 5.0 mph 95% 0.01 in -RA
12:40 35.5 °F 34.2 °F 29.89 in Calm   3.0 mph 95% 0.00 in -RA
12:50 35.3 °F 34.0 °F 29.89 in Calm   4.0 mph 95% 0.00 in -RA
13:00 35.3 °F 34.0 °F 29.88 in Calm   4.0 mph 95% 0.00 in -RA
13:10 35.2 °F 33.9 °F 29.89 in Calm   2.0 mph 95% 0.00 in -DZ
13:20 35.2 °F 33.9 °F 29.89 in Calm   3.0 mph 95% 0.00 in -DZ
13:30 35.3 °F 34.0 °F 29.87 in Calm   5.0 mph 95% 0.01 in -DZ
13:40 35.3 °F 34.0 °F 29.87 in Calm   3.0 mph 95% 0.00 in -DZ
13:50 35.1 °F 33.8 °F 29.87 in Calm   4.0 mph 95% 0.01 in -DZ
14:00 35.0 °F 33.7 °F 29.87 in North 1.0 mph 3.0 mph 95% 0.00 in -DZ
14:10 35.1 °F 33.8 °F 29.87 in Calm   1.0 mph 95% 0.01 in -DZ
14:20 35.1 °F 33.8 °F 29.87 in Calm   2.0 mph 95% 0.00 in -DZ
14:30 35.2 °F 33.9 °F 29.86 in North 1.0 mph 3.0 mph 95% 0.01 in -DZ
14:40 35.2 °F 34.0 °F 29.86 in WNW 1.0 mph 4.0 mph 95% 0.00 in -DZ
14:50 35.2 °F 33.9 °F 29.86 in Calm   4.0 mph 95% 0.00 in -DZ
15:00 35.2 °F 33.9 °F 29.86 in Calm   3.0 mph 95% 0.00 in -DZ
15:10 35.3 °F 34.0 °F 29.86 in North 1.0 mph 3.0 mph 95% 0.00 in -DZ
15:20 35.4 °F 34.3 °F 29.85 in Calm   3.0 mph 96% 0.00 in -DZ
15:30 35.4 °F 34.1 °F 29.85 in North 1.0 mph 6.0 mph 95% 0.00 in -DZ
15:40 35.3 °F 34.0 °F 29.83 in NE 2.0 mph 7.0 mph 95% 0.00 in -DZ
15:50 35.3 °F 34.0 °F 29.84 in NNE 1.0 mph 5.0 mph 95% 0.00 in -DZ
16:00 35.3 °F 34.3 °F 29.84 in ENE 1.0 mph 5.0 mph 96% 0.00 in -DZ
16:10 35.4 °F 34.4 °F 29.83 in Calm   4.0 mph 96% 0.00 in OVC
16:20 35.5 °F 34.5 °F 29.83 in East 1.0 mph 3.0 mph 96% 0.00 in OVC
16:30 35.5 °F 34.4 °F 29.83 in North 1.0 mph 4.0 mph 96% 0.00 in OVC
16:40 35.5 °F 34.5 °F 29.81 in NNW 1.0 mph 4.0 mph 96% 0.00 in OVC
16:50 35.4 °F 34.4 °F 29.84 in North 1.0 mph 5.0 mph 96% 0.00 in OVC
17:00 35.4 °F 34.4 °F 29.84 in Calm   2.0 mph 96% 0.00 in OVC
17:10 35.4 °F 34.4 °F 29.83 in Calm   4.0 mph 96% 0.00 in CLR
17:20 35.4 °F 34.4 °F 29.83 in Calm   4.0 mph 96% 0.00 in CLR
17:30 35.4 °F 34.4 °F 29.83 in Calm   5.0 mph 96% 0.00 in CLR
17:40 35.4 °F 34.4 °F 29.82 in Calm   5.0 mph 96% 0.00 in CLR
17:50 35.3 °F 34.3 °F 29.81 in NE 1.0 mph 3.0 mph 96% 0.00 in CLR
18:00 35.3 °F 34.3 °F 29.81 in Calm   2.0 mph 96% 0.01 in RA
18:10 35.3 °F 34.3 °F 29.81 in North 1.0 mph 3.0 mph 96% 0.00 in -RA
18:20 35.3 °F 34.3 °F 29.79 in ENE 1.0 mph 7.0 mph 96% 0.00 in -RA
18:30 35.3 °F 34.3 °F 29.80 in NNE 1.0 mph 3.0 mph 96% 0.00 in -RA
18:40 35.3 °F 34.3 °F 29.79 in NE 1.0 mph 7.0 mph 96% 0.00 in -RA
18:50 35.3 °F 34.3 °F 29.79 in Calm   4.0 mph 96% 0.00 in -RA
19:00 35.3 °F 34.3 °F 29.79 in Calm   6.0 mph 96% 0.00 in -RA
19:10 35.3 °F 34.3 °F 29.78 in NE 1.0 mph 8.0 mph 96% 0.00 in CLR
19:20 35.3 °F 34.3 °F 29.78 in North 1.0 mph 4.0 mph 96% 0.00 in CLR
19:30 35.3 °F 34.3 °F 29.78 in NE 2.0 mph 4.0 mph 96% 0.00 in CLR
19:40 35.3 °F 34.3 °F 29.77 in North 1.0 mph 4.0 mph 96% 0.00 in CLR
19:50 35.4 °F 34.3 °F 29.76 in ENE 1.0 mph 6.0 mph 96% 0.00 in CLR
20:00 35.4 °F 34.4 °F 29.75 in NW 2.0 mph 5.0 mph 96% 0.00 in CLR
20:10 35.5 °F 34.5 °F 29.75 in NNE 2.0 mph 8.0 mph 96% 0.00 in CLR
20:20 35.6 °F 34.6 °F 29.74 in NE 2.0 mph 6.0 mph 96% 0.00 in CLR
20:30 35.8 °F 34.7 °F 29.74 in Calm   7.0 mph 96% 0.00 in CLR
20:40 35.9 °F 34.9 °F 29.73 in NE 1.0 mph 7.0 mph 96% 0.00 in CLR
20:50 35.9 °F 35.1 °F 29.73 in NW 1.0 mph 6.0 mph 97% 0.00 in CLR
21:00 36.0 °F 35.2 °F 29.73 in NW 2.0 mph 6.0 mph 97% 0.00 in CLR
21:10 36.1 °F 35.3 °F 29.73 in NNW 1.0 mph 4.0 mph 97% 0.00 in CLR
21:20 36.1 °F 35.4 °F 29.72 in North 1.0 mph 4.0 mph 97% 0.00 in CLR
21:30 36.2 °F 35.4 °F 29.71 in NNW 2.0 mph 5.0 mph 97% 0.00 in CLR
21:40 36.3 °F 35.5 °F 29.70 in NE 2.0 mph 7.0 mph 97% 0.00 in CLR
21:50 36.4 °F 35.6 °F 29.71 in Calm   3.0 mph 97% 0.00 in CLR
22:00 36.5 °F 35.7 °F 29.70 in Calm   7.0 mph 97% 0.00 in CLR
22:10 36.5 °F 35.7 °F 29.69 in NNE 1.0 mph 4.0 mph 97% 0.00 in CLR
22:20 36.6 °F 35.8 °F 29.68 in North 1.0 mph 5.0 mph 97% 0.00 in CLR
22:30 36.6 °F 35.9 °F 29.68 in Calm   4.0 mph 97% 0.00 in CLR
22:40 36.7 °F 35.9 °F 29.68 in Calm   2.0 mph 97% 0.00 in CLR
22:50 36.8 °F 36.0 °F 29.67 in NNE 1.0 mph 3.0 mph 97% 0.00 in CLR
23:00 36.8 °F 36.0 °F 29.67 in Calm   4.0 mph 97% 0.00 in CLR
23:10 36.9 °F 36.1 °F 29.66 in Calm   6.0 mph 97% 0.00 in CLR
23:20 37.0 °F 36.2 °F 29.65 in North 1.0 mph 3.0 mph 97% 0.00 in CLR
23:30 37.1 °F 36.3 °F 29.65 in North 1.0 mph 5.0 mph 97% 0.00 in CLR
23:40 37.2 °F 36.4 °F 29.64 in Calm   4.0 mph 97% 0.00 in CLR
23:50 37.3 °F 36.5 °F 29.64 in Calm   5.0 mph 97% 0.00 in CLR
TarryTown NY Weather
Compliments of Weather Underground - 1.75 mb